Time;durP1;ratioP1;P1;durP2;ratioP2;P2;SDS_P1;SDS_P2;PMS_P1;PMS_P2;Temp;Humidity;BMP_temperature;BMP_pressure;BME280_temperature;BME280_humidity;BME280_pressure;Samples;Min_cycle;Max_cycle;Signal;HPM_P1;HPM_P2
2022/09/03 00:02:50;;;;;;;3.08;1.40;;;;;;;13.56;62.11;99669.66;8104461;29;20108;-83
2022/09/03 00:06:57;;;;;;;4.78;1.52;;;;;;;13.45;62.25;99668.34;8012190;29;20142;-83
2022/09/03 00:11:05;;;;;;;3.95;1.80;;;;;;;13.38;62.25;99662.56;8012041;29;20508;-84
2022/09/03 00:15:08;;;;;;;3.40;1.35;;;;;;;13.31;62.52;99667.66;7997009;29;20054;-83
2022/09/03 00:19:10;;;;;;;4.82;1.60;;;;;;;13.22;62.79;99658.69;8011331;29;20061;-84
2022/09/03 00:23:22;;;;;;;3.75;1.55;;;;;;;13.11;63.21;99658.13;8033793;29;20057;-82
2022/09/03 00:27:25;;;;;;;4.97;1.50;;;;;;;13.03;63.44;99656.97;8056350;29;20471;-84
2022/09/03 00:31:39;;;;;;;8.60;1.55;;;;;;;12.93;63.85;99657.22;8056536;29;20052;-81
2022/09/03 00:35:43;;;;;;;10.38;1.80;;;;;;;12.81;64.55;99658.91;8071017;29;20061;-84
2022/09/03 00:39:44;;;;;;;5.50;2.10;;;;;;;12.56;65.67;99654.91;8072665;29;20076;-85
2022/09/03 00:43:48;;;;;;;4.38;2.20;;;;;;;12.42;66.07;99651.47;8152745;29;20056;-81
2022/09/03 00:48:14;;;;;;;9.50;2.25;;;;;;;12.33;66.56;99648.69;8175626;29;20448;-82
2022/09/03 00:52:24;;;;;;;6.25;2.28;;;;;;;12.24;66.97;99645.13;8149454;29;20055;-82
2022/09/03 00:56:49;;;;;;;4.45;2.40;;;;;;;12.15;67.04;99636.94;8169537;29;20060;-82
2022/09/03 01:00:51;;;;;;;6.30;2.22;;;;;;;12.12;67.18;99642.13;8185081;29;20069;-83
2022/09/03 01:05:25;;;;;;;4.05;1.80;;;;;;;12.08;67.34;99641.97;8172002;29;20083;-83
2022/09/03 01:09:39;;;;;;;8.70;2.20;;;;;;;12.00;67.50;99639.97;8132061;29;20048;-84
2022/09/03 01:13:45;;;;;;;8.10;2.80;;;;;;;11.92;67.67;99643.41;8123029;29;20056;-83
2022/09/03 01:18:09;;;;;;;4.82;2.20;;;;;;;11.85;67.91;99638.41;8149190;29;20052;-83
2022/09/03 01:22:56;;;;;;;7.93;2.50;;;;;;;11.79;68.28;99645.00;8132544;29;20139;-84
2022/09/03 01:27:06;;;;;;;4.88;2.15;;;;;;;11.71;68.29;99644.91;8039957;29;20087;-83
2022/09/03 01:31:34;;;;;;;4.00;1.80;;;;;;;11.67;68.46;99641.22;8038955;29;20127;-84
2022/09/03 01:35:47;;;;;;;6.22;2.50;;;;;;;11.67;68.47;99646.63;8033726;29;20125;-85
2022/09/03 01:39:50;;;;;;;4.88;2.20;;;;;;;11.65;68.41;99649.63;8054327;29;20084;-84
2022/09/03 01:44:11;;;;;;;5.10;2.00;;;;;;;11.61;68.48;99647.84;8046330;29;20121;-84
2022/09/03 01:48:58;;;;;;;5.13;2.00;;;;;;;11.57;68.78;99646.84;8061526;29;20060;-84
2022/09/03 01:53:06;;;;;;;3.45;2.08;;;;;;;11.51;68.75;99648.84;8039147;29;20054;-85
2022/09/03 01:57:16;;;;;;;8.73;2.33;;;;;;;11.52;68.58;99644.25;8039545;29;20069;-84
2022/09/03 02:01:45;;;;;;;4.35;1.88;;;;;;;11.50;68.65;99635.63;8044516;29;20099;-84
2022/09/03 02:05:46;;;;;;;3.75;2.10;;;;;;;11.46;68.78;99634.63;8103404;29;20060;-85
2022/09/03 02:09:47;;;;;;;4.22;2.33;;;;;;;11.46;68.76;99635.44;8064399;29;20530;-86
2022/09/03 02:13:53;;;;;;;6.78;2.25;;;;;;;11.42;68.63;99624.38;8102553;29;20155;-86
2022/09/03 02:17:58;;;;;;;5.15;1.92;;;;;;;11.43;68.74;99636.81;8086035;29;20064;-85
2022/09/03 02:21:59;;;;;;;6.78;2.05;;;;;;;11.47;68.43;99625.41;8113366;29;20075;-87
2022/09/03 02:26:02;;;;;;;5.18;1.90;;;;;;;11.48;68.61;99632.41;8110121;29;20047;-84
2022/09/03 02:30:04;;;;;;;6.57;2.40;;;;;;;11.49;68.28;99639.41;8135512;29;20044;-86
2022/09/03 02:34:05;;;;;;;6.68;2.38;;;;;;;11.47;68.46;99631.63;8179293;29;20504;-87
2022/09/03 02:38:15;;;;;;;4.85;2.15;;;;;;;11.47;68.17;99625.41;8189646;29;20114;-85
2022/09/03 02:42:17;;;;;;;8.95;2.30;;;;;;;11.47;68.05;99626.22;8173579;29;20051;-85
2022/09/03 02:46:43;;;;;;;6.95;2.00;;;;;;;11.50;67.95;99624.78;8175435;29;20044;-85
2022/09/03 02:50:44;;;;;;;8.52;2.63;;;;;;;11.53;67.80;99618.75;8163856;29;20055;-85
2022/09/03 02:54:45;;;;;;;5.63;2.00;;;;;;;11.50;67.73;99630.19;8170278;29;20086;-86
2022/09/03 02:58:49;;;;;;;9.55;1.85;;;;;;;11.49;67.61;99628.59;8155266;29;20044;-86
2022/09/03 03:02:51;;;;;;;3.10;1.77;;;;;;;11.50;67.63;99619.38;8173654;29;20075;-85
2022/09/03 03:06:52;;;;;;;11.90;2.30;;;;;;;11.53;67.29;99624.19;8178029;29;20173;-85
2022/09/03 03:10:57;;;;;;;5.13;2.05;;;;;;;11.53;67.15;99629.59;8172472;29;20052;-85
2022/09/03 03:14:59;;;;;;;5.93;2.20;;;;;;;11.52;67.14;99628.81;8165516;29;20055;-85
2022/09/03 03:18:59;;;;;;;7.30;2.22;;;;;;;11.53;67.32;99626.88;8182639;29;20066;-86
2022/09/03 03:23:01;;;;;;;5.85;2.40;;;;;;;11.51;67.11;99631.81;8183983;29;20062;-87
2022/09/03 03:27:06;;;;;;;9.07;2.20;;;;;;;11.50;66.93;99635.63;8126507;29;20043;-85
2022/09/03 03:31:12;;;;;;;7.97;1.88;;;;;;;11.47;67.11;99638.94;8176906;29;20058;-85
2022/09/03 03:35:14;;;;;;;3.85;2.25;;;;;;;11.43;66.99;99631.41;8177896;29;20044;-85
2022/09/03 03:39:14;;;;;;;5.90;2.38;;;;;;;11.40;67.03;99632.03;8186483;29;20071;-86
2022/09/03 03:43:15;;;;;;;10.15;2.35;;;;;;;11.37;67.08;99627.19;8173209;28;20052;-86
2022/09/03 03:47:17;;;;;;;9.27;2.33;;;;;;;11.38;67.18;99623.41;8172550;29;20490;-85
2022/09/03 03:51:18;;;;;;;6.22;2.40;;;;;;;11.36;66.86;99620.22;8174235;29;20493;-87
2022/09/03 03:55:19;;;;;;;5.32;2.00;;;;;;;11.36;66.92;99628.31;8180205;29;20059;-87
2022/09/03 03:59:20;;;;;;;4.15;2.20;;;;;;;11.37;66.98;99634.50;8166849;29;20082;-84
2022/09/03 04:03:21;;;;;;;5.45;2.20;;;;;;;11.34;66.97;99633.22;8166824;29;20055;-85
2022/09/03 04:07:21;;;;;;;6.72;2.17;;;;;;;11.33;66.89;99631.59;8166880;29;20062;-86
2022/09/03 04:11:23;;;;;;;6.28;2.15;;;;;;;11.33;67.00;99630.81;8166643;29;20043;-86
2022/09/03 04:15:24;;;;;;;5.30;2.13;;;;;;;11.32;66.88;99640.81;8135359;29;20083;-84
2022/09/03 04:19:25;;;;;;;7.85;2.00;;;;;;;11.32;66.90;99640.81;8172451;29;20048;-85
2022/09/03 04:23:33;;;;;;;5.95;2.35;;;;;;;11.34;66.48;99635.91;8170043;29;20051;-85
2022/09/03 04:27:34;;;;;;;5.55;2.45;;;;;;;11.36;66.52;99625.63;8170404;29;20095;-84
2022/09/03 04:31:36;;;;;;;4.28;1.98;;;;;;;11.38;66.39;99628.81;8175474;29;20047;-88
2022/09/03 04:35:37;;;;;;;6.63;2.13;;;;;;;11.38;66.23;99634.22;8180377;29;20055;-86
2022/09/03 04:39:38;;;;;;;5.50;2.22;;;;;;;11.44;66.08;99627.59;8183275;29;20059;-88
2022/09/03 04:43:42;;;;;;;5.80;2.28;;;;;;;11.50;66.18;99630.19;8178858;29;20401;-86
2022/09/03 04:47:54;;;;;;;7.82;2.80;;;;;;;11.55;66.12;99630.09;8180760;29;20047;-84
2022/09/03 04:51:58;;;;;;;11.27;2.20;;;;;;;11.55;66.14;99625.50;8170077;29;20107;-84
2022/09/03 04:55:59;;;;;;;5.47;2.17;;;;;;;11.58;66.09;99648.44;8170037;29;20118;-83
2022/09/03 05:00:00;;;;;;;9.23;3.17;;;;;;;11.61;66.04;99658.66;8171844;29;20111;-88
2022/09/03 05:04:01;;;;;;;10.70;2.70;;;;;;;11.65;65.76;99649.63;8171106;29;20559;-84
2022/09/03 05:08:03;;;;;;;10.27;2.90;;;;;;;11.74;65.38;99636.22;8184984;29;20048;-85
2022/09/03 05:12:04;;;;;;;5.15;2.35;;;;;;;11.81;65.42;99647.44;8169299;29;20052;-84
2022/09/03 05:16:07;;;;;;;5.75;2.35;;;;;;;11.89;65.40;99644.03;8160420;29;20054;-84
2022/09/03 05:20:09;;;;;;;6.70;2.50;;;;;;;11.96;65.33;99649.81;8169167;29;20061;-84
2022/09/03 05:24:10;;;;;;;7.18;2.97;;;;;;;12.04;65.17;99651.81;8191669;28;20143;-85
2022/09/03 05:28:12;;;;;;;10.27;2.90;;;;;;;12.16;64.70;99654.75;8169240;29;20048;-85
2022/09/03 05:32:15;;;;;;;10.65;2.45;;;;;;;12.27;64.57;99656.13;8168230;29;20114;-84
2022/09/03 05:36:21;;;;;;;8.80;3.00;;;;;;;12.39;64.20;99657.50;8168520;29;20489;-83
2022/09/03 05:40:22;;;;;;;9.65;2.67;;;;;;;12.49;64.00;99658.06;8176610;29;20059;-83
2022/09/03 05:44:23;;;;;;;11.20;3.10;;;;;;;12.60;63.79;99654.00;8176305;29;20147;-84
2022/09/03 05:48:24;;;;;;;6.45;2.75;;;;;;;12.71;63.65;99649.13;8178020;29;20059;-83
2022/09/03 05:52:25;;;;;;;7.32;2.97;;;;;;;12.80;63.57;99652.69;8165200;29;20569;-83
2022/09/03 05:56:28;;;;;;;9.00;2.85;;;;;;;12.86;63.74;99640.59;8170801;29;20177;-86
2022/09/03 06:00:29;;;;;;;8.85;3.25;;;;;;;12.93;63.61;99646.38;8174392;29;20067;-82
2022/09/03 06:04:30;;;;;;;7.20;3.08;;;;;;;13.00;63.58;99649.47;8171547;29;20056;-84
2022/09/03 06:08:31;;;;;;;8.15;3.30;;;;;;;13.09;63.66;99650.31;8185361;29;20059;-84
2022/09/03 06:12:32;;;;;;;12.50;3.40;;;;;;;13.16;63.92;99649.09;8181092;29;20123;-85
2022/09/03 06:16:35;;;;;;;10.20;3.13;;;;;;;13.23;63.84;99644.78;8174404;29;20059;-84
2022/09/03 06:20:36;;;;;;;7.25;3.05;;;;;;;13.31;63.74;99645.97;8187952;29;20489;-83
2022/09/03 06:24:37;;;;;;;8.43;3.08;;;;;;;13.39;64.08;99658.75;8175630;29;20086;-86
2022/09/03 06:28:43;;;;;;;6.40;3.00;;;;;;;13.42;64.03;99663.56;8178375;29;20063;-84
2022/09/03 06:32:49;;;;;;;6.72;2.78;;;;;;;13.45;64.21;99668.34;8178192;29;20390;-82
2022/09/03 06:36:51;;;;;;;11.80;3.25;;;;;;;13.48;64.27;99662.31;8176358;29;20051;-84
2022/09/03 06:41:01;;;;;;;13.00;3.40;;;;;;;13.51;64.36;99661.66;8174131;29;20510;-84
2022/09/03 06:45:02;;;;;;;9.10;3.53;;;;;;;13.57;64.48;99673.97;8194697;28;20051;-85
2022/09/03 06:49:02;;;;;;;6.20;3.20;;;;;;;13.68;64.89;99678.00;8194468;28;20178;-86
2022/09/03 06:53:04;;;;;;;13.65;3.40;;;;;;;13.81;64.70;99682.50;8180232;29;20047;-84
2022/09/03 06:57:05;;;;;;;6.75;3.47;;;;;;;13.92;64.96;99672.94;8182872;29;20163;-84
2022/09/03 07:01:17;;;;;;;6.38;3.28;;;;;;;14.02;64.73;99676.47;8139345;29;20052;-85
2022/09/03 07:05:18;;;;;;;15.13;3.42;;;;;;;14.13;64.50;99680.47;8156154;29;20076;-83
2022/09/03 07:09:22;;;;;;;6.95;3.13;;;;;;;14.24;64.44;99679.06;8177740;29;20048;-84
2022/09/03 07:13:23;;;;;;;10.23;3.33;;;;;;;14.35;64.56;99674.91;8188046;28;20056;-84
2022/09/03 07:17:24;;;;;;;7.50;3.58;;;;;;;14.48;64.62;99684.84;8177664;29;20494;-85
2022/09/03 07:21:28;;;;;;;8.48;3.30;;;;;;;14.62;64.74;99680.03;8172688;29;20061;-83
2022/09/03 07:25:30;;;;;;;8.63;3.33;;;;;;;14.74;64.39;99688.34;8172854;29;20576;-86
2022/09/03 07:29:32;;;;;;;8.45;3.13;;;;;;;14.79;64.40;99684.66;8167907;29;20387;-83
2022/09/03 07:33:33;;;;;;;8.75;3.47;;;;;;;14.78;64.51;99683.88;8171909;29;20497;-82
2022/09/03 07:37:34;;;;;;;7.97;3.65;;;;;;;14.85;64.54;99693.47;8191727;29;20105;-83
2022/09/03 07:41:36;;;;;;;13.20;4.10;;;;;;;14.94;64.53;99696.97;8174845;29;20160;-84
2022/09/03 07:45:37;;;;;;;14.82;3.75;;;;;;;15.14;64.24;99696.25;8172080;29;20056;-83
2022/09/03 07:49:38;;;;;;;12.00;3.85;;;;;;;15.30;63.82;99694.63;8171762;29;20055;-86
2022/09/03 07:53:40;;;;;;;15.77;3.75;;;;;;;15.39;63.30;99697.28;8171693;29;20543;-85
2022/09/03 07:57:41;;;;;;;8.48;3.75;;;;;;;15.46;63.90;99703.84;8173319;29;20381;-82
2022/09/03 08:01:41;;;;;;;8.07;3.67;;;;;;;15.57;63.45;99699.66;8171794;29;20130;-82
2022/09/03 08:05:43;;;;;;;11.90;3.70;;;;;;;15.66;63.25;99696.91;8175739;29;20048;-81
2022/09/03 08:09:43;;;;;;;10.00;3.33;;;;;;;15.80;63.00;99693.97;8172628;29;20135;-82
2022/09/03 08:13:47;;;;;;;7.95;3.45;;;;;;;15.97;63.26;99691.13;8170978;29;20067;-85
2022/09/03 08:17:48;;;;;;;7.88;3.45;;;;;;;16.10;62.42;99690.09;8171745;29;20106;-83
2022/09/03 08:21:49;;;;;;;7.72;3.38;;;;;;;16.21;61.71;99694.00;8170902;29;20055;-85
2022/09/03 08:25:57;;;;;;;8.93;3.25;;;;;;;16.37;61.71;99700.47;8169672;29;20117;-83
2022/09/03 08:29:58;;;;;;;;;;;;;;;16.57;61.66;99693.41;8170665;29;20458;-84
2022/09/03 08:34:05;;;;;;;6.85;3.50;;;;;;;16.77;61.05;99697.25;8170317;29;19978;-86
2022/09/03 08:38:07;;;;;;;8.10;3.50;;;;;;;16.86;60.93;99696.06;8183796;29;20134;-82
2022/09/03 08:42:14;;;;;;;10.52;3.75;;;;;;;17.00;60.15;99701.22;8175221;29;20051;-83
2022/09/03 08:46:15;;;;;;;9.57;3.83;;;;;;;17.13;60.29;99689.19;8142235;29;20055;-84
2022/09/03 08:50:28;;;;;;;10.20;3.95;;;;;;;17.34;60.23;99688.34;8168620;29;20039;-84
2022/09/03 08:54:30;;;;;;;8.77;3.90;;;;;;;17.47;60.27;99689.94;8171270;29;20110;-83
2022/09/03 08:58:33;;;;;;;9.40;4.00;;;;;;;17.75;60.30;99688.16;8168595;29;20081;-83
2022/09/03 09:02:46;;;;;;;15.65;4.00;;;;;;;17.95;60.27;99681.78;8168056;29;20047;-83
2022/09/03 09:07:12;;;;;;;15.07;3.83;;;;;;;18.02;59.17;99671.06;8167557;29;20455;-82
2022/09/03 09:11:16;;;;;;;11.80;4.20;;;;;;;18.02;58.79;99676.53;8169477;29;20043;-84
2022/09/03 09:15:39;;;;;;;13.45;4.40;;;;;;;18.04;58.04;99679.69;8170342;29;20054;-83
2022/09/03 09:20:06;;;;;;;12.48;4.40;;;;;;;18.10;57.67;99672.06;8159038;29;20059;-86
2022/09/03 09:24:18;;;;;;;19.58;5.18;;;;;;;18.34;58.22;99671.22;8152132;29;20055;-83
2022/09/03 09:28:24;;;;;;;8.50;3.97;;;;;;;18.48;57.74;99677.88;8170607;29;20055;-83
2022/09/03 09:32:27;;;;;;;7.95;3.97;;;;;;;18.56;57.72;99667.97;8172582;29;20118;-83
2022/09/03 09:36:29;;;;;;;11.82;4.13;;;;;;;18.74;57.47;99657.53;8168530;29;20540;-83
2022/09/03 09:40:43;;;;;;;11.88;3.95;;;;;;;18.88;56.20;99658.69;8168073;29;20442;-84
2022/09/03 09:44:44;;;;;;;23.58;6.00;;;;;;;18.89;55.52;99663.03;8168531;29;20421;-82
2022/09/03 09:48:57;;;;;;;15.98;4.35;;;;;;;18.99;55.40;99670.72;8168451;29;20078;-84
2022/09/03 09:53:13;;;;;;;11.93;4.95;;;;;;;19.18;54.97;99650.88;8168149;29;20089;-85
2022/09/03 09:57:17;;;;;;;12.32;3.83;;;;;;;19.36;54.86;99651.31;8168360;29;20500;-82
2022/09/03 10:01:24;;;;;;;10.75;3.97;;;;;;;19.57;54.19;99646.38;8167663;29;20048;-85
2022/09/03 10:05:35;;;;;;;13.75;3.72;;;;;;;19.72;53.35;99653.78;8168077;29;20485;-83
2022/09/03 10:09:36;;;;;;;13.55;4.47;;;;;;;19.69;52.88;99649.03;8158744;29;20500;-84
2022/09/03 10:13:43;;;;;;;9.63;3.83;;;;;;;19.75;53.19;99658.56;8168477;29;20047;-84
2022/09/03 10:17:58;;;;;;;9.95;3.83;;;;;;;19.83;52.18;99647.78;8162917;29;20059;-84
2022/09/03 10:22:11;;;;;;;14.98;3.85;;;;;;;19.94;52.33;99648.78;8167126;29;20083;-87
2022/09/03 10:26:18;;;;;;;17.92;7.13;;;;;;;19.85;52.21;99648.22;8166584;29;20052;-83
2022/09/03 10:30:19;;;;;;;10.55;4.35;;;;;;;19.99;52.71;99634.81;8101276;29;20139;-84
2022/09/03 10:34:35;;;;;;;10.57;4.32;;;;;;;20.10;52.92;99630.34;8086145;29;20049;-85
2022/09/03 10:38:38;;;;;;;12.30;4.20;;;;;;;20.26;53.06;99628.34;8101344;29;20586;-84
2022/09/03 10:42:45;;;;;;;11.27;3.67;;;;;;;20.36;51.64;99638.78;8101435;29;20061;-85
2022/09/03 10:47:02;;;;;;;13.77;4.10;;;;;;;20.30;51.97;99631.97;8088054;29;20052;-85
2022/09/03 10:51:16;;;;;;;12.15;3.90;;;;;;;20.38;50.79;99633.72;8099532;29;20494;-84
2022/09/03 10:55:37;;;;;;;11.18;4.00;;;;;;;20.48;51.60;99630.41;8089301;29;20155;-86
2022/09/03 11:00:07;;;;;;;9.60;3.97;;;;;;;20.58;51.47;99629.03;8016099;29;20057;-87
2022/09/03 11:04:19;;;;;;;9.80;3.58;;;;;;;20.50;51.70;99625.38;8043684;29;20049;-86
2022/09/03 11:08:47;;;;;;;6.93;3.58;;;;;;;20.64;51.23;99622.88;8082060;29;20053;-87
2022/09/03 11:13:03;;;;;;;7.20;3.92;;;;;;;20.75;50.85;99619.53;8086806;29;20113;-84
2022/09/03 11:17:12;;;;;;;13.13;4.82;;;;;;;20.59;49.96;99614.94;8088996;29;20660;-85
2022/09/03 11:21:19;;;;;;;10.48;4.22;;;;;;;20.43;50.36;99611.50;8092704;29;20045;-88
2022/09/03 11:25:24;;;;;;;11.05;4.03;;;;;;;20.57;50.49;99611.75;8085115;29;20041;-84
2022/09/03 11:29:45;;;;;;;11.20;4.03;;;;;;;20.78;49.79;99613.34;8100614;29;20071;-86
2022/09/03 11:33:53;;;;;;;10.48;4.00;;;;;;;20.58;50.33;99602.38;8071919;29;20136;-85
2022/09/03 11:38:12;;;;;;;16.77;4.77;;;;;;;20.44;51.15;99595.84;8182809;29;20155;-84
2022/09/03 11:42:32;;;;;;;13.52;4.25;;;;;;;20.43;50.61;99595.03;8187972;28;20043;-88
2022/09/03 11:46:33;;;;;;;11.55;4.18;;;;;;;20.20;50.48;99596.88;8169925;29;20054;-85
2022/09/03 11:50:35;;;;;;;13.43;4.53;;;;;;;20.27;50.75;99597.03;8173893;29;20047;-88
2022/09/03 11:54:45;;;;;;;10.68;4.40;;;;;;;20.22;51.29;99589.09;8177462;29;20058;-87
2022/09/03 11:58:59;;;;;;;10.55;4.15;;;;;;;20.33;51.02;99579.16;8177664;29;20059;-87
2022/09/03 12:03:03;;;;;;;11.48;4.20;;;;;;;20.58;50.26;99569.44;8171578;29;20412;-88
2022/09/03 12:07:33;;;;;;;11.07;4.53;;;;;;;20.87;50.87;99569.97;8164619;29;20044;-84
2022/09/03 12:11:34;;;;;;;;;;;;;;;21.12;50.43;99576.66;8176725;29;20056;-85
2022/09/03 12:15:45;;;;;;;9.70;3.85;;;;;;;20.94;49.66;99575.56;8172547;29;19929;-83
2022/09/03 12:19:54;;;;;;;8.27;4.10;;;;;;;21.16;49.52;99566.56;8172149;29;20517;-86
2022/09/03 12:23:55;;;;;;;9.95;4.00;;;;;;;21.28;48.68;99569.13;8180403;29;20051;-84
2022/09/03 12:27:59;;;;;;;13.18;4.40;;;;;;;20.87;49.58;99565.28;8172189;29;20058;-83
2022/09/03 12:32:10;;;;;;;10.73;3.85;;;;;;;20.70;50.71;99564.94;8158581;29;20102;-83
2022/09/03 12:36:12;;;;;;;9.13;3.80;;;;;;;20.54;51.79;99568.59;8168967;29;20150;-84
2022/09/03 12:40:22;;;;;;;9.20;3.90;;;;;;;20.42;52.21;99560.53;8177135;29;20078;-84
2022/09/03 12:44:30;;;;;;;10.80;4.28;;;;;;;20.61;51.46;99546.78;8163810;29;20043;-84
2022/09/03 12:48:31;;;;;;;12.45;4.35;;;;;;;20.47;50.75;99552.00;8169533;29;20041;-86
2022/09/03 12:52:44;;;;;;;7.40;4.07;;;;;;;20.30;50.96;99552.44;8175301;29;20048;-86
2022/09/03 12:56:51;;;;;;;7.80;3.60;;;;;;;20.08;51.49;99555.91;8156495;29;20075;-85
2022/09/03 13:01:03;;;;;;;8.07;3.80;;;;;;;20.22;51.49;99550.69;8156268;29;20060;-84
2022/09/03 13:05:05;;;;;;;9.48;3.83;;;;;;;20.82;50.83;99540.09;8176464;29;20103;-84
2022/09/03 13:09:08;;;;;;;9.43;3.70;;;;;;;20.75;50.20;99545.44;8169242;29;20126;-84
2022/09/03 13:13:24;;;;;;;13.52;3.70;;;;;;;20.52;50.65;99543.47;8130592;29;20056;-84
2022/09/03 13:17:27;;;;;;;11.73;3.25;;;;;;;20.35;51.10;99543.94;8142034;29;20063;-84
2022/09/03 13:21:55;;;;;;;11.18;3.70;;;;;;;20.53;51.06;99545.06;8141300;29;20064;-84
2022/09/03 13:26:21;;;;;;;9.13;3.60;;;;;;;22.13;47.66;99548.34;8124624;29;20105;-87
2022/09/03 13:30:30;;;;;;;8.00;3.30;;;;;;;23.01;45.91;99540.19;8139938;29;20052;-88
2022/09/03 13:34:37;;;;;;;8.88;3.67;;;;;;;24.60;43.77;99537.50;8128398;29;20084;-87
2022/09/03 13:38:42;;;;;;;12.70;3.22;;;;;;;25.31;42.37;99537.56;8118238;29;20055;-87
2022/09/03 13:42:55;;;;;;;12.73;4.03;;;;;;;25.76;40.76;99535.09;8154503;29;20055;-86
2022/09/03 13:47:00;;;;;;;14.77;3.58;;;;;;;25.27;41.20;99547.84;8133879;29;20048;-88
2022/09/03 13:51:22;;;;;;;11.50;4.10;;;;;;;25.15;41.89;99539.94;8136965;29;20052;-87
2022/09/03 13:55:35;;;;;;;11.75;3.20;;;;;;;24.63;42.63;99531.22;8129055;29;20059;-85
2022/09/03 13:59:49;;;;;;;12.18;3.33;;;;;;;24.97;42.33;99544.66;8124102;29;20061;-86
2022/09/03 14:03:54;;;;;;;5.10;2.92;;;;;;;23.99;42.77;99542.03;8139254;29;20052;-87
2022/09/03 14:07:55;;;;;;;7.13;3.50;;;;;;;23.53;43.81;99540.97;8151603;29;20052;-85
2022/09/03 14:12:00;;;;;;;6.47;2.72;;;;;;;23.56;44.65;99534.72;8165084;29;20781;-84
2022/09/03 14:16:09;;;;;;;9.05;3.25;;;;;;;25.84;40.80;99542.19;8156179;29;20063;-85
2022/09/03 14:20:48;;;;;;;12.38;3.78;;;;;;;24.64;41.90;99538.28;8168070;29;20464;-85
2022/09/03 14:25:00;;;;;;;5.85;3.47;;;;;;;23.02;43.96;99533.53;8133273;29;20076;-86
2022/09/03 14:29:04;;;;;;;7.78;3.25;;;;;;;22.28;44.98;99544.56;8139086;29;20472;-85
2022/09/03 14:33:30;;;;;;;8.70;3.65;;;;;;;22.15;46.37;99540.50;8125808;29;20048;-85
2022/09/03 14:37:50;;;;;;;10.27;3.70;;;;;;;22.21;46.69;99533.47;8058583;29;20563;-85
2022/09/03 14:42:03;;;;;;;11.07;3.35;;;;;;;22.20;47.41;99531.91;8045930;29;20105;-85
2022/09/03 14:46:33;;;;;;;5.57;3.30;;;;;;;21.78;48.03;99536.88;8052260;29;20081;-85
2022/09/03 14:50:42;;;;;;;9.82;3.55;;;;;;;21.34;48.77;99540.16;8041581;29;20050;-84
2022/09/03 14:55:08;;;;;;;8.30;3.60;;;;;;;21.04;49.51;99536.53;8055762;29;20197;-84
2022/09/03 14:59:14;;;;;;;17.02;4.05;;;;;;;20.83;50.01;99530.69;8053644;29;20388;-84
2022/09/03 15:03:45;;;;;;;8.60;3.42;;;;;;;20.73;50.39;99520.31;8073763;29;20487;-84
2022/09/03 15:07:50;;;;;;;7.72;3.30;;;;;;;20.61;50.77;99527.59;7966404;29;20132;-85
2022/09/03 15:12:18;;;;;;;9.57;3.33;;;;;;;20.44;51.50;99528.03;7979479;29;20067;-84
2022/09/03 15:16:22;;;;;;;13.23;3.63;;;;;;;20.37;51.97;99530.66;8013450;29;20050;-82
2022/09/03 15:20:50;;;;;;;8.70;3.00;;;;;;;20.28;52.45;99521.84;8012956;29;20439;-82
2022/09/03 15:25:04;;;;;;;9.20;3.92;;;;;;;20.33;52.66;99516.06;7959615;29;20050;-83
2022/09/03 15:29:20;;;;;;;9.15;3.10;;;;;;;20.50;52.34;99517.56;7997299;29;20164;-84
2022/09/03 15:33:34;;;;;;;7.75;3.75;;;;;;;20.64;52.00;99513.13;8011825;29;20104;-83
2022/09/03 15:37:46;;;;;;;10.48;3.47;;;;;;;20.56;51.80;99516.13;7996555;29;20571;-85
2022/09/03 15:41:55;;;;;;;11.00;3.40;;;;;;;20.51;51.93;99513.66;7992813;29;20064;-85
2022/09/03 15:46:12;;;;;;;12.90;3.70;;;;;;;20.51;52.54;99519.16;8046528;29;20068;-85
2022/09/03 15:50:32;;;;;;;10.23;3.95;;;;;;;20.55;52.62;99520.81;8044037;29;20093;-85
2022/09/03 15:55:08;;;;;;;10.57;3.80;;;;;;;20.55;52.69;99520.81;8170534;29;20146;-86
2022/09/03 15:59:37;;;;;;;10.05;3.65;;;;;;;20.58;52.59;99522.81;8095401;29;20401;-84
2022/09/03 16:03:45;;;;;;;8.75;4.47;;;;;;;20.50;52.58;99521.09;8101366;29;20549;-86
2022/09/03 16:08:04;;;;;;;6.80;3.83;;;;;;;20.30;53.06;99519.53;8093314;29;20052;-88
2022/09/03 16:12:07;;;;;;;;;;;;;;;20.12;53.45;99523.88;8130050;29;20479;-84
2022/09/03 16:16:16;;;;;;;7.82;3.22;;;;;;;19.94;53.83;99533.66;8133102;29;20025;-84
2022/09/03 16:20:30;;;;;;;8.90;3.50;;;;;;;19.79;54.35;99536.13;8129482;29;20048;-84
2022/09/03 16:25:10;;;;;;;12.25;3.33;;;;;;;19.67;55.04;99544.47;8132488;29;20135;-85
2022/09/03 16:29:16;;;;;;;9.80;3.83;;;;;;;19.49;55.16;99535.06;8013878;29;20087;-84
2022/09/03 16:33:20;;;;;;;8.15;3.72;;;;;;;19.41;55.50;99538.75;8010154;29;20060;-85
2022/09/03 16:37:55;;;;;;;9.18;3.67;;;;;;;19.33;56.64;99531.53;8024635;29;20054;-85
2022/09/03 16:42:05;;;;;;;7.13;3.97;;;;;;;19.14;56.98;99539.72;8029716;29;20049;-85
2022/09/03 16:46:06;;;;;;;14.48;3.85;;;;;;;18.98;57.78;99532.28;8047861;29;20081;-85
2022/09/03 16:50:12;;;;;;;9.20;3.97;;;;;;;18.78;58.56;99538.81;8043207;29;20049;-84
2022/09/03 16:54:17;;;;;;;7.88;3.75;;;;;;;18.64;58.98;99535.72;8047644;29;20057;-84
2022/09/03 16:58:25;;;;;;;8.63;3.70;;;;;;;18.48;59.20;99529.41;8040837;29;20519;-85
2022/09/03 17:03:04;;;;;;;6.32;3.83;;;;;;;18.36;59.81;99537.66;8041131;29;20061;-85
2022/09/03 17:07:12;;;;;;;8.93;4.10;;;;;;;18.23;60.20;99538.88;8169800;29;20455;-84
2022/09/03 17:11:22;;;;;;;12.23;5.28;;;;;;;18.09;60.45;99540.06;8162770;29;20039;-85
2022/09/03 17:15:49;;;;;;;10.45;4.97;;;;;;;18.01;60.56;99538.28;8173373;29;20055;-85
2022/09/03 17:20:05;;;;;;;9.88;5.15;;;;;;;17.90;60.83;99542.66;8168461;29;20056;-85
2022/09/03 17:24:38;;;;;;;18.55;4.70;;;;;;;17.76;61.53;99542.25;8153927;29;20059;-84
2022/09/03 17:28:48;;;;;;;8.60;4.60;;;;;;;17.63;61.82;99546.13;8157411;29;20143;-85
2022/09/03 17:33:22;;;;;;;10.40;4.45;;;;;;;17.46;62.66;99544.41;8170804;29;20118;-85
2022/09/03 17:37:32;;;;;;;12.65;4.82;;;;;;;17.25;63.31;99550.00;8164343;29;20047;-83
2022/09/03 17:41:39;;;;;;;11.82;5.10;;;;;;;17.11;63.70;99560.47;8166864;29;20054;-84
2022/09/03 17:45:49;;;;;;;10.45;4.10;;;;;;;16.98;63.99;99553.41;8168432;29;20046;-84
2022/09/03 17:50:14;;;;;;;10.18;4.10;;;;;;;16.93;64.13;99548.19;8168257;29;20075;-84
2022/09/03 17:54:33;;;;;;;9.60;4.03;;;;;;;16.87;64.44;99560.44;8162078;29;20039;-85
2022/09/03 17:58:41;;;;;;;10.80;4.20;;;;;;;16.83;64.09;99551.34;8167673;29;20065;-85
2022/09/03 18:02:54;;;;;;;8.77;3.90;;;;;;;16.79;64.14;99553.97;8150916;29;20063;-85
2022/09/03 18:07:04;;;;;;;11.05;3.80;;;;;;;16.77;64.13;99550.78;8160712;29;20047;-85
2022/09/03 18:11:33;;;;;;;9.05;3.67;;;;;;;16.74;64.30;99556.13;8167632;29;20859;-86
2022/09/03 18:15:59;;;;;;;14.50;5.22;;;;;;;16.64;64.56;99562.00;8167787;29;20044;-86
2022/09/03 20:13:18;;;;;;;11.30;5.25;;;;;;;15.68;66.49;99595.84;8178039;29;20089;-85
2022/09/03 20:17:34;;;;;;;12.10;4.75;;;;;;;15.61;66.79;99597.16;8168577;29;20063;-84
2022/09/03 20:21:45;;;;;;;11.93;5.82;;;;;;;15.57;66.91;99609.03;8168996;29;20481;-85
2022/09/03 20:25:58;;;;;;;13.88;5.57;;;;;;;15.54;67.17;99613.22;8169930;29;20044;-86
2022/09/03 20:30:10;;;;;;;9.77;5.80;;;;;;;15.48;67.54;99609.06;8170840;29;20051;-83
2022/09/03 20:34:11;;;;;;;12.00;5.95;;;;;;;15.45;67.88;99609.69;8169209;29;20047;-87
2022/09/03 20:38:43;;;;;;;12.70;6.15;;;;;;;15.44;68.10;99613.53;8173543;29;20051;-86
2022/09/03 20:43:02;;;;;;;10.65;6.53;;;;;;;15.40;68.23;99623.50;8169593;29;21869;-86
2022/09/03 20:47:30;;;;;;;13.85;5.38;;;;;;;15.38;68.40;99631.22;8169377;29;20139;-86
2022/09/03 20:51:52;;;;;;;18.85;5.65;;;;;;;15.32;68.71;99621.63;8171076;29;20079;-84
2022/09/03 20:55:55;;;;;;;11.25;6.13;;;;;;;15.27;69.01;99627.25;8182141;29;20094;-83
2022/09/03 21:00:12;;;;;;;11.73;5.80;;;;;;;15.20;69.55;99627.75;8170883;29;20056;-86
2022/09/03 21:04:20;;;;;;;11.88;6.10;;;;;;;15.10;69.77;99624.59;8185531;29;20492;-85
2022/09/03 21:08:54;;;;;;;10.35;5.60;;;;;;;14.97;70.39;99625.59;8157416;29;20098;-85
2022/09/03 21:13:08;;;;;;;10.95;5.72;;;;;;;14.90;70.61;99636.19;8171901;29;20118;-86
2022/09/03 21:17:28;;;;;;;13.43;6.30;;;;;;;14.88;70.97;99631.06;8144929;29;20039;-87
2022/09/03 21:21:31;;;;;;;12.30;5.80;;;;;;;14.90;70.99;99630.75;8165780;29;20054;-84
2022/09/03 21:25:42;;;;;;;13.80;6.15;;;;;;;14.92;71.12;99634.72;8177461;29;20051;-83